createdAt,value
2017-12-16T00:00:56.544Z,0
2017-12-16T00:01:57.264Z,0
2017-12-16T00:02:57.969Z,0
2017-12-16T00:03:58.674Z,0
2017-12-16T00:04:59.379Z,0
2017-12-16T00:06:00.086Z,0
2017-12-16T00:07:00.796Z,0
2017-12-16T00:08:01.500Z,0
2017-12-16T00:09:02.203Z,0
2017-12-16T00:10:02.908Z,0
2017-12-16T00:11:03.614Z,0
2017-12-16T00:12:04.321Z,0
2017-12-16T00:13:05.040Z,0
2017-12-16T00:14:05.745Z,0
2017-12-16T00:15:06.450Z,0
2017-12-16T00:16:07.153Z,0
2017-12-16T00:17:07.868Z,0
2017-12-16T00:18:08.567Z,0
2017-12-16T00:19:09.272Z,0
2017-12-16T00:20:09.979Z,0
2017-12-16T00:21:10.701Z,0
2017-12-16T00:22:11.439Z,0
2017-12-16T00:23:12.144Z,0
2017-12-16T00:24:12.849Z,0
2017-12-16T00:25:13.554Z,0
2017-12-16T00:26:14.274Z,0
2017-12-16T00:27:14.979Z,0
2017-12-16T00:28:15.685Z,0
2017-12-16T00:29:16.391Z,0
2017-12-16T00:30:17.097Z,0
2017-12-16T00:31:17.837Z,0
2017-12-16T00:32:18.542Z,0
2017-12-16T00:33:19.263Z,0
2017-12-16T00:34:19.969Z,0
2017-12-16T00:35:20.682Z,0
2017-12-16T00:36:21.395Z,0
2017-12-16T00:37:22.114Z,0
2017-12-16T00:38:22.818Z,0
2017-12-16T00:39:23.524Z,0
2017-12-16T00:40:24.231Z,0
2017-12-16T00:41:24.940Z,0
2017-12-16T00:42:25.645Z,0
2017-12-16T00:43:26.353Z,0
2017-12-16T00:44:27.058Z,0
2017-12-16T00:45:27.785Z,0
2017-12-16T00:46:28.508Z,0
2017-12-16T00:47:29.215Z,0
2017-12-16T00:48:29.920Z,0
2017-12-16T00:49:30.625Z,0
2017-12-16T00:50:31.329Z,0
2017-12-16T00:51:32.035Z,0
2017-12-16T00:52:32.753Z,0
2017-12-16T00:53:33.459Z,0
2017-12-16T00:54:34.163Z,0
2017-12-16T00:55:34.868Z,0
2017-12-16T00:56:35.573Z,0
2017-12-16T00:57:36.278Z,0
2017-12-16T00:58:36.983Z,0
2017-12-16T00:59:37.690Z,0
2017-12-16T01:00:38.394Z,0
2017-12-16T01:01:39.098Z,0
2017-12-16T01:02:39.804Z,0
2017-12-16T01:03:40.508Z,0
2017-12-16T01:04:41.214Z,0
2017-12-16T01:05:41.934Z,0
2017-12-16T01:06:42.638Z,0
2017-12-16T01:07:43.344Z,0
2017-12-16T01:08:44.050Z,0
2017-12-16T01:09:44.755Z,0
2017-12-16T01:10:45.459Z,0
2017-12-16T01:11:46.164Z,0
2017-12-16T01:12:46.884Z,0
2017-12-16T01:13:47.590Z,0
2017-12-16T01:14:48.294Z,0
2017-12-16T01:15:48.998Z,0
2017-12-16T01:16:49.719Z,0
2017-12-16T01:17:50.425Z,0
2017-12-16T01:18:51.143Z,0
2017-12-16T01:19:51.849Z,0
2017-12-16T01:20:52.554Z,0
2017-12-16T01:21:53.260Z,0
2017-12-16T01:22:53.965Z,0
2017-12-16T01:23:54.686Z,0
2017-12-16T01:24:55.393Z,0
2017-12-16T01:25:56.112Z,0
2017-12-16T01:26:56.818Z,0
2017-12-16T01:27:57.524Z,0
2017-12-16T01:28:58.244Z,0
2017-12-16T01:29:58.966Z,0
2017-12-16T01:30:59.686Z,0
2017-12-16T01:32:00.393Z,0
2017-12-16T01:33:01.100Z,0
2017-12-16T01:34:01.817Z,0
2017-12-16T01:35:02.524Z,0
2017-12-16T01:36:03.231Z,0
2017-12-16T01:37:03.935Z,0
2017-12-16T01:38:04.655Z,0
2017-12-16T01:39:05.363Z,0
2017-12-16T01:40:06.065Z,0
2017-12-16T01:41:06.770Z,0
2017-12-16T01:42:07.481Z,0
2017-12-16T01:43:08.179Z,0
2017-12-16T01:44:08.884Z,0
2017-12-16T01:45:09.589Z,0
2017-12-16T01:46:10.296Z,0
2017-12-16T01:47:11.002Z,0
2017-12-16T01:48:11.708Z,0
2017-12-16T01:49:12.418Z,0
2017-12-16T01:50:13.136Z,0
2017-12-16T01:51:13.845Z,0
2017-12-16T01:52:14.562Z,0
2017-12-16T01:53:15.267Z,0
2017-12-16T01:54:15.974Z,0
2017-12-16T01:55:16.679Z,0
2017-12-16T01:56:17.385Z,0
2017-12-16T01:57:18.092Z,0
2017-12-16T01:58:18.799Z,0
2017-12-16T01:59:19.506Z,0
2017-12-16T02:00:20.212Z,0
2017-12-16T02:01:20.931Z,0
2017-12-16T02:02:21.637Z,0
2017-12-16T02:03:22.344Z,0
2017-12-16T02:04:23.066Z,0
2017-12-16T02:05:23.773Z,0
2017-12-16T02:06:24.478Z,0
2017-12-16T02:07:25.185Z,0
2017-12-16T02:08:25.889Z,0
2017-12-16T02:09:26.594Z,0
2017-12-16T02:10:27.298Z,0
2017-12-16T02:11:28.019Z,0
2017-12-16T02:12:28.723Z,0
2017-12-16T02:13:29.429Z,0
2017-12-16T02:14:30.136Z,0
2017-12-16T02:15:30.844Z,0
2017-12-16T02:16:31.545Z,0
2017-12-16T02:17:32.265Z,0
2017-12-16T02:18:32.971Z,0
2017-12-16T02:19:33.677Z,0
2017-12-16T02:20:34.396Z,0
2017-12-16T02:21:35.103Z,0
2017-12-16T02:22:35.822Z,0
2017-12-16T02:23:36.530Z,0
2017-12-16T02:24:37.247Z,0
2017-12-16T02:25:37.954Z,0
2017-12-16T02:26:38.660Z,0
2017-12-16T02:27:39.366Z,0
2017-12-16T02:28:40.073Z,0
2017-12-16T02:29:40.778Z,0
2017-12-16T02:30:41.497Z,0
2017-12-16T02:31:42.468Z,0
2017-12-16T02:32:43.173Z,0
2017-12-16T02:33:43.877Z,0
2017-12-16T02:34:44.584Z,0
2017-12-16T02:35:45.288Z,0
2017-12-16T02:36:46.251Z,0
2017-12-16T02:37:46.958Z,0
2017-12-16T02:38:47.664Z,0
2017-12-16T02:39:48.370Z,0
2017-12-16T02:40:49.075Z,0
2017-12-16T02:41:49.781Z,0
2017-12-16T02:42:50.486Z,0
2017-12-16T02:43:51.208Z,0
2017-12-16T02:44:51.914Z,0
2017-12-16T02:45:52.620Z,0
2017-12-16T02:46:53.325Z,0
2017-12-16T02:47:54.030Z,0
2017-12-16T02:48:54.750Z,0
2017-12-16T02:49:55.456Z,0
2017-12-16T02:50:56.160Z,0
2017-12-16T02:51:56.865Z,0
2017-12-16T02:52:57.574Z,0
2017-12-16T02:53:58.277Z,0
2017-12-16T02:54:58.983Z,0
2017-12-16T02:55:59.687Z,0
2017-12-16T02:57:00.389Z,0
2017-12-16T02:58:01.095Z,0
2017-12-16T02:59:01.799Z,0
2017-12-16T03:00:02.503Z,0
2017-12-16T03:01:03.209Z,0
2017-12-16T03:02:03.929Z,0
2017-12-16T03:03:04.634Z,0
2017-12-16T03:04:05.340Z,0
2017-12-16T03:05:06.046Z,0
2017-12-16T03:06:06.764Z,0
2017-12-16T03:07:07.469Z,0
2017-12-16T03:08:08.177Z,0
2017-12-16T03:09:08.881Z,0
2017-12-16T03:10:09.602Z,0
2017-12-16T03:11:10.308Z,0
2017-12-16T03:12:11.090Z,0
2017-12-16T03:13:11.736Z,0
2017-12-16T03:14:12.441Z,0
2017-12-16T03:15:13.164Z,0
2017-12-16T03:16:13.868Z,0
2017-12-16T03:17:14.573Z,0
2017-12-16T03:18:15.278Z,0
2017-12-16T03:19:15.986Z,0
2017-12-16T03:20:16.707Z,0
2017-12-16T03:21:17.409Z,0
2017-12-16T03:22:18.131Z,0
2017-12-16T03:23:18.837Z,0
2017-12-16T03:24:19.561Z,0
2017-12-16T03:25:20.263Z,0
2017-12-16T03:26:20.986Z,0
2017-12-16T03:27:21.693Z,0
2017-12-16T03:28:22.400Z,0
2017-12-16T03:29:23.108Z,0
2017-12-16T03:30:23.828Z,0
2017-12-16T03:31:24.533Z,0
2017-12-16T03:32:25.241Z,0
2017-12-16T03:33:25.960Z,0
2017-12-16T03:34:26.668Z,0
2017-12-16T03:35:27.374Z,0
2017-12-16T03:36:28.094Z,0
2017-12-16T03:37:28.799Z,0
2017-12-16T03:38:29.505Z,0
2017-12-16T03:39:30.210Z,0
2017-12-16T03:40:30.917Z,0
2017-12-16T03:41:31.638Z,0
2017-12-16T03:42:32.347Z,0
2017-12-16T03:43:33.053Z,0
2017-12-16T03:44:33.759Z,0
2017-12-16T03:45:34.467Z,0
2017-12-16T03:46:35.173Z,0
2017-12-16T03:47:35.874Z,0
2017-12-16T03:48:36.579Z,0
2017-12-16T03:49:37.284Z,0
2017-12-16T03:50:37.990Z,0
2017-12-16T03:51:38.694Z,0
2017-12-16T03:52:39.399Z,0
2017-12-16T03:53:40.119Z,0
2017-12-16T03:54:40.825Z,0
2017-12-16T03:55:41.531Z,0
2017-12-16T03:56:42.237Z,0
2017-12-16T03:57:42.944Z,0
2017-12-16T03:58:43.708Z,0
2017-12-16T03:59:44.358Z,0
2017-12-16T04:00:45.066Z,0
2017-12-16T04:01:45.771Z,0
2017-12-16T04:02:46.476Z,0
2017-12-16T04:03:47.183Z,0
2017-12-16T04:04:47.887Z,0
2017-12-16T04:05:48.593Z,0
2017-12-16T04:06:49.297Z,0
2017-12-16T04:07:50.005Z,0
2017-12-16T04:08:50.723Z,0
2017-12-16T04:09:51.428Z,0
2017-12-16T04:10:52.150Z,0
2017-12-16T04:11:52.870Z,0
2017-12-16T04:12:53.576Z,0
2017-12-16T04:13:54.281Z,0
2017-12-16T04:14:55.003Z,0
2017-12-16T04:15:55.710Z,0
2017-12-16T04:16:56.418Z,0
2017-12-16T04:17:57.124Z,0
2017-12-16T04:18:57.830Z,0
2017-12-16T04:19:58.536Z,0
2017-12-16T04:20:59.241Z,0
2017-12-16T04:21:59.947Z,0
2017-12-16T04:23:00.652Z,0
2017-12-16T04:24:01.356Z,0
2017-12-16T04:25:02.063Z,0
2017-12-16T04:26:02.768Z,0
2017-12-16T04:27:03.474Z,0
2017-12-16T04:28:04.195Z,0
2017-12-16T04:29:04.902Z,0
2017-12-16T04:30:05.609Z,0
2017-12-16T04:31:06.314Z,0
2017-12-16T04:32:07.021Z,0
2017-12-16T04:33:07.727Z,0
2017-12-16T04:34:08.433Z,0
2017-12-16T04:35:09.153Z,0
2017-12-16T04:36:09.873Z,0
2017-12-16T04:37:10.596Z,0
2017-12-16T04:38:11.300Z,0
2017-12-16T04:39:12.006Z,0
2017-12-16T04:40:12.710Z,0
2017-12-16T04:41:13.414Z,0
2017-12-16T04:42:14.121Z,0
2017-12-16T04:43:14.825Z,0
2017-12-16T04:44:15.531Z,0
2017-12-16T04:45:16.237Z,0
2017-12-16T04:46:16.942Z,0
2017-12-16T04:47:17.648Z,0
2017-12-16T04:48:18.353Z,0
2017-12-16T04:49:19.057Z,0
2017-12-16T04:50:19.763Z,0
2017-12-16T04:51:20.469Z,0
2017-12-16T04:52:21.176Z,0
2017-12-16T04:53:21.882Z,0
2017-12-16T04:54:22.602Z,0
2017-12-16T04:55:23.308Z,0
2017-12-16T04:56:24.012Z,0
2017-12-16T04:57:24.718Z,0
2017-12-16T04:58:25.423Z,0
2017-12-16T04:59:26.129Z,0
2017-12-16T05:00:26.834Z,0
2017-12-16T05:01:27.538Z,0
2017-12-16T05:02:28.243Z,0
2017-12-16T05:03:28.951Z,0
2017-12-16T05:04:29.656Z,0
2017-12-16T05:05:30.378Z,0
2017-12-16T05:06:31.085Z,0
2017-12-16T05:07:31.791Z,0
2017-12-16T05:08:32.567Z,0
2017-12-16T05:09:33.268Z,0
2017-12-16T05:10:33.974Z,0
2017-12-16T05:11:34.678Z,0
2017-12-16T05:12:35.385Z,0
2017-12-16T05:13:36.092Z,0
2017-12-16T05:14:36.797Z,0
2017-12-16T05:15:37.503Z,0
2017-12-16T05:16:38.207Z,0
2017-12-16T05:17:38.913Z,0
2017-12-16T05:18:39.619Z,0
2017-12-16T05:19:40.326Z,0
2017-12-16T05:20:41.046Z,0
2017-12-16T05:21:41.769Z,0
2017-12-16T05:22:42.473Z,0
2017-12-16T05:23:43.193Z,0
2017-12-16T05:24:43.897Z,0
2017-12-16T05:25:44.637Z,0
2017-12-16T05:26:45.342Z,0
2017-12-16T05:27:46.049Z,0
2017-12-16T05:28:46.755Z,0
2017-12-16T05:29:47.460Z,0
2017-12-16T05:30:48.166Z,0
2017-12-16T05:31:48.904Z,0
2017-12-16T05:32:49.610Z,0
2017-12-16T05:33:50.329Z,0
2017-12-16T05:34:51.051Z,0
2017-12-16T05:35:51.752Z,0
2017-12-16T05:36:52.459Z,0
2017-12-16T05:37:53.165Z,0
2017-12-16T05:38:53.871Z,0
2017-12-16T05:39:54.578Z,0
2017-12-16T05:40:55.283Z,0
2017-12-16T05:41:56.002Z,0
2017-12-16T05:42:56.723Z,0
2017-12-16T05:43:57.430Z,0
2017-12-16T05:44:58.136Z,0
2017-12-16T05:45:58.844Z,0
2017-12-16T05:46:59.550Z,0
2017-12-16T05:48:00.257Z,0
2017-12-16T05:49:00.964Z,0
2017-12-16T05:50:01.668Z,0
2017-12-16T05:51:02.386Z,0
2017-12-16T05:52:03.106Z,0
2017-12-16T05:53:03.834Z,0
2017-12-16T05:54:04.532Z,0
2017-12-16T05:55:05.237Z,0
2017-12-16T05:56:05.942Z,0
2017-12-16T05:57:06.661Z,0
2017-12-16T05:58:07.369Z,0
2017-12-16T05:59:08.074Z,0
2017-12-16T06:00:08.781Z,0
2017-12-16T06:01:09.487Z,0
2017-12-16T06:02:10.195Z,0
2017-12-16T06:03:10.903Z,0
2017-12-16T06:04:11.608Z,0
2017-12-16T06:05:12.313Z,0
2017-12-16T06:06:13.017Z,0
2017-12-16T06:07:13.735Z,0
2017-12-16T06:08:14.478Z,0
2017-12-16T06:09:15.149Z,0
2017-12-16T06:10:15.854Z,0
2017-12-16T06:11:16.559Z,0
2017-12-16T06:12:17.267Z,0
2017-12-16T06:13:17.974Z,0
2017-12-16T06:14:18.676Z,0
2017-12-16T06:15:19.382Z,0
2017-12-16T06:16:20.087Z,0
2017-12-16T06:17:20.805Z,0
2017-12-16T06:18:21.510Z,0
2017-12-16T06:19:22.216Z,0
2017-12-16T06:20:22.948Z,0
2017-12-16T06:21:23.691Z,0
2017-12-16T06:22:24.396Z,0
2017-12-16T06:23:25.100Z,0
2017-12-16T06:24:25.805Z,0
2017-12-16T06:25:26.512Z,0
2017-12-16T06:26:27.218Z,0
2017-12-16T06:27:27.924Z,0
2017-12-16T06:28:28.631Z,0
2017-12-16T06:29:29.336Z,0
2017-12-16T06:30:30.043Z,0
2017-12-16T06:31:30.747Z,0
2017-12-16T06:32:31.452Z,0
2017-12-16T06:33:32.155Z,0
2017-12-16T06:34:32.862Z,0
2017-12-16T06:35:33.566Z,0
2017-12-16T06:36:34.286Z,0
2017-12-16T06:37:34.990Z,0
2017-12-16T06:38:35.695Z,0
2017-12-16T06:39:36.400Z,0
2017-12-16T06:40:37.122Z,0
2017-12-16T06:41:37.828Z,0
2017-12-16T06:42:38.532Z,0
2017-12-16T06:43:39.238Z,0
2017-12-16T06:44:39.958Z,0
2017-12-16T06:45:40.663Z,0
2017-12-16T06:46:41.369Z,0
2017-12-16T06:47:42.073Z,0
2017-12-16T06:48:42.795Z,0
2017-12-16T06:49:43.501Z,0
2017-12-16T06:50:44.208Z,0
2017-12-16T06:51:44.913Z,0
2017-12-16T06:52:45.618Z,0
2017-12-16T06:53:46.322Z,0
2017-12-16T06:54:47.028Z,0
2017-12-16T06:55:47.746Z,0
2017-12-16T06:56:48.452Z,0
2017-12-16T06:57:49.172Z,0
2017-12-16T06:58:49.879Z,0
2017-12-16T06:59:50.600Z,0
2017-12-16T07:00:51.305Z,0
2017-12-16T07:01:52.025Z,0
2017-12-16T07:02:52.732Z,0
2017-12-16T07:03:53.438Z,0
2017-12-16T07:04:54.145Z,0
2017-12-16T07:05:54.868Z,0
2017-12-16T07:06:55.591Z,0
2017-12-16T07:07:56.298Z,0
2017-12-16T07:08:57.005Z,0
2017-12-16T07:09:57.726Z,0
2017-12-16T07:10:58.433Z,0
2017-12-16T07:11:59.139Z,0
2017-12-16T07:12:59.853Z,0
2017-12-16T07:14:00.554Z,0
2017-12-16T07:15:01.263Z,0
2017-12-16T07:16:01.973Z,0
2017-12-16T07:17:02.693Z,0
2017-12-16T07:18:03.400Z,0
2017-12-16T07:19:04.107Z,0
2017-12-16T07:20:04.838Z,0
2017-12-16T07:21:05.537Z,0
2017-12-16T07:22:06.244Z,0
2017-12-16T07:23:06.965Z,0
2017-12-16T07:24:07.675Z,5
2017-12-16T07:25:08.383Z,5
2017-12-16T07:26:09.107Z,5
2017-12-16T07:27:09.816Z,5
2017-12-16T07:28:10.525Z,5
2017-12-16T07:29:11.234Z,5
2017-12-16T07:30:11.944Z,5
2017-12-16T07:31:12.655Z,5
2017-12-16T07:32:13.365Z,5
2017-12-16T07:33:14.073Z,5
2017-12-16T07:34:14.795Z,5
2017-12-16T07:35:15.504Z,10
2017-12-16T07:36:16.215Z,10
2017-12-16T07:37:16.938Z,10
2017-12-16T07:38:17.649Z,10
2017-12-16T07:39:18.375Z,10
2017-12-16T07:40:19.084Z,10
2017-12-16T07:41:19.793Z,15
2017-12-16T07:42:20.516Z,15
2017-12-16T07:43:21.228Z,15
2017-12-16T07:44:21.937Z,15
2017-12-16T07:45:22.646Z,15
2017-12-16T07:46:23.355Z,20
2017-12-16T07:47:24.079Z,20
2017-12-16T07:48:24.804Z,20
2017-12-16T07:49:25.516Z,25
2017-12-16T07:50:26.226Z,25
2017-12-16T07:51:26.936Z,25
2017-12-16T07:52:27.646Z,25
2017-12-16T07:53:28.355Z,30
2017-12-16T07:54:29.065Z,30
2017-12-16T07:55:29.791Z,35
2017-12-16T07:56:30.516Z,40
2017-12-16T07:57:31.227Z,35
2017-12-16T07:58:31.939Z,40
2017-12-16T07:59:32.656Z,40
2017-12-16T08:00:33.362Z,40
2017-12-16T08:01:34.073Z,40
2017-12-16T08:02:34.800Z,40
2017-12-16T08:03:35.524Z,40
2017-12-16T08:04:36.233Z,40
2017-12-16T08:05:36.943Z,40
2017-12-16T08:06:37.672Z,40
2017-12-16T08:07:38.385Z,45
2017-12-16T08:08:39.106Z,55
2017-12-16T08:09:39.833Z,70
2017-12-16T08:10:40.561Z,80
2017-12-16T08:11:41.286Z,90
2017-12-16T08:12:41.997Z,95
2017-12-16T08:13:42.710Z,105
2017-12-16T08:14:43.423Z,115
2017-12-16T08:15:44.139Z,125
2017-12-16T08:16:44.852Z,130
2017-12-16T08:17:45.579Z,140
2017-12-16T08:18:46.293Z,145
2017-12-16T08:19:47.008Z,150
2017-12-16T08:20:47.726Z,160
2017-12-16T08:21:48.436Z,110
2017-12-16T08:22:49.150Z,85
2017-12-16T08:23:49.876Z,85
2017-12-16T08:24:50.588Z,80
2017-12-16T08:25:51.302Z,80
2017-12-16T08:26:52.015Z,85
2017-12-16T08:27:52.741Z,90
2017-12-16T08:28:53.455Z,110
2017-12-16T08:29:54.169Z,160
2017-12-16T08:30:54.882Z,200
2017-12-16T08:31:55.596Z,215
2017-12-16T08:32:56.325Z,220
2017-12-16T08:33:57.040Z,225
2017-12-16T08:34:57.771Z,230
2017-12-16T08:35:58.485Z,190
2017-12-16T08:36:59.202Z,160
2017-12-16T08:37:59.933Z,165
2017-12-16T08:39:00.648Z,280
2017-12-16T08:40:01.371Z,285
2017-12-16T08:41:02.077Z,285
2017-12-16T08:42:02.792Z,275
2017-12-16T08:43:03.510Z,275
2017-12-16T08:44:04.225Z,280
2017-12-16T08:45:04.941Z,275
2017-12-16T08:46:05.660Z,285
2017-12-16T08:47:06.376Z,285
2017-12-16T08:48:07.096Z,290
2017-12-16T08:49:07.814Z,290
2017-12-16T08:50:08.531Z,290
2017-12-16T08:51:09.266Z,290
2017-12-16T08:52:09.984Z,295
2017-12-16T08:53:10.701Z,305
2017-12-16T08:54:11.419Z,300
2017-12-16T08:55:12.139Z,305
2017-12-16T08:56:12.860Z,270
2017-12-16T08:57:13.580Z,305
2017-12-16T08:58:14.310Z,310
2017-12-16T08:59:15.044Z,325
2017-12-16T09:00:15.774Z,335
2017-12-16T09:01:16.508Z,345
2017-12-16T09:02:17.239Z,345
2017-12-16T09:03:17.960Z,350
2017-12-16T09:04:18.682Z,365
2017-12-16T09:05:19.402Z,360
2017-12-16T09:06:20.123Z,355
2017-12-16T09:07:20.845Z,355
2017-12-16T09:08:21.568Z,350
2017-12-16T09:09:22.288Z,345
2017-12-16T09:10:23.011Z,350
2017-12-16T09:11:23.730Z,345
2017-12-16T09:12:24.466Z,345
2017-12-16T09:13:25.189Z,340
2017-12-16T09:14:25.910Z,345
2017-12-16T09:15:26.632Z,345
2017-12-16T09:16:27.356Z,345
2017-12-16T09:17:28.076Z,345
2017-12-16T09:18:28.798Z,350
2017-12-16T09:19:29.520Z,345
2017-12-16T09:20:30.244Z,345
2017-12-16T09:21:30.982Z,350
2017-12-16T09:22:31.720Z,310
2017-12-16T09:23:32.445Z,355
2017-12-16T09:24:33.167Z,360
2017-12-16T09:25:33.891Z,365
2017-12-16T09:26:34.615Z,360
2017-12-16T09:27:35.338Z,365
2017-12-16T09:28:36.069Z,355
2017-12-16T09:29:36.800Z,360
2017-12-16T09:30:37.524Z,365
2017-12-16T09:31:38.247Z,360
2017-12-16T09:32:38.972Z,360
2017-12-16T09:33:39.709Z,365
2017-12-16T09:34:40.431Z,360
2017-12-16T09:35:41.156Z,365
2017-12-16T09:36:41.877Z,385
2017-12-16T09:37:42.603Z,405
2017-12-16T09:38:43.327Z,410
2017-12-16T09:39:44.063Z,420
2017-12-16T09:40:44.787Z,345
2017-12-16T09:41:45.523Z,230
2017-12-16T09:42:46.243Z,245
2017-12-16T09:43:46.964Z,240
2017-12-16T09:44:47.689Z,395
2017-12-16T09:45:48.412Z,440
2017-12-16T09:46:49.135Z,495
2017-12-16T09:47:49.860Z,505
2017-12-16T09:48:50.584Z,495
2017-12-16T09:49:51.320Z,480
2017-12-16T09:50:52.043Z,465
2017-12-16T09:51:52.777Z,470
2017-12-16T09:52:53.507Z,505
2017-12-16T09:53:54.233Z,530
2017-12-16T09:54:54.954Z,515
2017-12-16T09:55:55.681Z,505
2017-12-16T09:56:56.428Z,490
2017-12-16T09:57:57.132Z,460
2017-12-16T09:58:57.858Z,285
2017-12-16T09:59:58.580Z,225
2017-12-16T10:00:59.306Z,205
2017-12-16T10:02:00.027Z,215
2017-12-16T10:03:00.747Z,195
2017-12-16T10:04:01.467Z,180
2017-12-16T10:05:02.189Z,175
2017-12-16T10:06:02.924Z,195
2017-12-16T10:07:03.660Z,225
2017-12-16T10:08:04.379Z,270
2017-12-16T10:09:05.102Z,380
2017-12-16T10:10:05.821Z,300
2017-12-16T10:11:06.540Z,495
2017-12-16T10:12:07.262Z,425
2017-12-16T10:13:07.999Z,265
2017-12-16T10:14:08.718Z,315
2017-12-16T10:15:09.440Z,370
2017-12-16T10:16:10.176Z,310
2017-12-16T10:17:10.899Z,320
2017-12-16T10:18:11.618Z,200
2017-12-16T10:19:12.337Z,180
2017-12-16T10:20:13.058Z,190
2017-12-16T10:21:13.776Z,235
2017-12-16T10:22:14.511Z,265
2017-12-16T10:23:15.230Z,275
2017-12-16T10:24:15.949Z,290
2017-12-16T10:25:16.666Z,275
2017-12-16T10:26:17.401Z,260
2017-12-16T10:27:18.120Z,240
2017-12-16T10:28:18.837Z,260
2017-12-16T10:29:19.556Z,250
2017-12-16T10:30:20.274Z,225
2017-12-16T10:31:21.006Z,175
2017-12-16T10:32:21.724Z,140
2017-12-16T10:33:22.439Z,130
2017-12-16T10:34:23.158Z,135
2017-12-16T10:35:23.875Z,140
2017-12-16T10:36:24.597Z,145
2017-12-16T10:37:25.308Z,155
2017-12-16T10:38:26.025Z,160
2017-12-16T10:39:26.758Z,175
2017-12-16T10:40:27.475Z,175
2017-12-16T10:41:28.192Z,180
2017-12-16T10:42:28.907Z,185
2017-12-16T10:43:29.624Z,165
2017-12-16T10:44:30.341Z,140
2017-12-16T10:45:31.056Z,125
2017-12-16T10:46:31.772Z,135
2017-12-16T10:47:32.487Z,150
2017-12-16T10:48:33.201Z,155
2017-12-16T10:49:33.915Z,165
2017-12-16T10:50:34.632Z,165
2017-12-16T10:51:35.350Z,150
2017-12-16T10:52:36.077Z,140
2017-12-16T10:53:36.791Z,155
2017-12-16T10:54:37.509Z,175
2017-12-16T10:55:38.225Z,170
2017-12-16T10:56:38.938Z,175
2017-12-16T10:57:39.654Z,190
2017-12-16T10:58:40.369Z,205
2017-12-16T10:59:41.100Z,215
2017-12-16T11:00:41.815Z,230
2017-12-16T11:01:42.530Z,315
2017-12-16T11:02:43.244Z,355
2017-12-16T11:03:43.977Z,360
2017-12-16T11:04:44.693Z,375
2017-12-16T11:05:45.423Z,515
2017-12-16T11:06:46.141Z,610
2017-12-16T11:07:46.892Z,390
2017-12-16T11:08:47.607Z,250
2017-12-16T11:09:48.326Z,260
2017-12-16T11:10:49.058Z,485
2017-12-16T11:11:49.779Z,530
2017-12-16T11:12:50.495Z,385
2017-12-16T11:13:51.215Z,540
2017-12-16T11:14:51.938Z,530
2017-12-16T11:15:52.655Z,530
2017-12-16T11:16:53.378Z,545
2017-12-16T11:17:54.096Z,570
2017-12-16T11:18:54.817Z,590
2017-12-16T11:19:55.556Z,500
2017-12-16T11:20:56.277Z,380
2017-12-16T11:21:57.013Z,305
2017-12-16T11:22:57.731Z,275
2017-12-16T11:23:58.462Z,285
2017-12-16T11:24:59.178Z,345
2017-12-16T11:25:59.897Z,475
2017-12-16T11:27:00.618Z,565
2017-12-16T11:28:01.337Z,580
2017-12-16T11:29:02.058Z,615
2017-12-16T11:31:03.503Z,520
2017-12-16T11:32:04.224Z,335
2017-12-16T11:33:04.944Z,485
2017-12-16T11:34:05.680Z,530
2017-12-16T11:35:06.402Z,645
2017-12-16T11:36:07.125Z,660
2017-12-16T11:37:07.880Z,640
2017-12-16T11:38:08.571Z,600
2017-12-16T11:39:09.309Z,570
2017-12-16T11:40:10.045Z,540
2017-12-16T11:41:10.768Z,535
2017-12-16T11:42:11.493Z,515
2017-12-16T11:43:12.215Z,235
2017-12-16T11:44:12.939Z,475
2017-12-16T11:45:13.672Z,535
2017-12-16T11:46:14.385Z,525
2017-12-16T11:47:15.107Z,265
2017-12-16T11:48:15.847Z,510
2017-12-16T11:49:16.570Z,235
2017-12-16T11:50:17.307Z,210
2017-12-16T11:51:18.028Z,230
2017-12-16T11:52:18.748Z,225
2017-12-16T11:53:19.467Z,245
2017-12-16T11:54:20.187Z,275
2017-12-16T11:55:20.911Z,300
2017-12-16T11:56:21.641Z,295
2017-12-16T11:57:22.359Z,300
2017-12-16T11:58:23.077Z,290
2017-12-16T11:59:23.801Z,290
2017-12-16T12:00:24.515Z,285
2017-12-16T12:01:25.232Z,285
2017-12-16T12:02:25.950Z,250
2017-12-16T12:03:26.670Z,205
2017-12-16T12:04:27.387Z,170
2017-12-16T12:05:28.105Z,170
2017-12-16T12:06:28.823Z,180
2017-12-16T12:07:29.556Z,175
2017-12-16T12:08:30.274Z,190
2017-12-16T12:09:30.990Z,260
2017-12-16T12:10:31.709Z,370
2017-12-16T12:11:32.434Z,420
2017-12-16T12:12:33.163Z,365
2017-12-16T12:13:33.893Z,330
2017-12-16T12:14:34.609Z,215
2017-12-16T12:15:35.327Z,230
2017-12-16T12:16:36.045Z,415
2017-12-16T12:17:36.762Z,485
2017-12-16T12:18:37.478Z,495
2017-12-16T12:19:38.197Z,450
2017-12-16T12:20:38.932Z,415
2017-12-16T12:21:39.665Z,210
2017-12-16T12:22:40.380Z,190
2017-12-16T12:23:41.114Z,495
2017-12-16T12:24:41.843Z,520
2017-12-16T12:25:42.561Z,480
2017-12-16T12:26:43.294Z,220
2017-12-16T12:27:44.012Z,260
2017-12-16T12:28:44.745Z,190
2017-12-16T12:29:45.465Z,125
2017-12-16T12:30:46.181Z,115
2017-12-16T12:31:46.897Z,110
2017-12-16T12:32:47.613Z,115
2017-12-16T12:33:48.330Z,125
2017-12-16T12:34:49.060Z,145
2017-12-16T12:35:49.775Z,175
2017-12-16T12:36:50.490Z,165
2017-12-16T12:37:51.219Z,170
2017-12-16T12:38:51.953Z,180
2017-12-16T12:39:52.667Z,205
2017-12-16T12:40:53.385Z,175
2017-12-16T12:41:54.099Z,145
2017-12-16T12:42:54.814Z,155
2017-12-16T12:43:55.533Z,135
2017-12-16T12:44:56.247Z,175
2017-12-16T12:45:56.962Z,330
2017-12-16T12:46:57.679Z,225
2017-12-16T12:47:58.396Z,260
2017-12-16T12:48:59.127Z,310
2017-12-16T12:49:59.857Z,170
2017-12-16T12:51:00.572Z,205
2017-12-16T12:52:01.291Z,220
2017-12-16T12:53:02.005Z,170
2017-12-16T12:54:02.779Z,175
2017-12-16T12:55:03.450Z,250
2017-12-16T12:56:04.166Z,400
2017-12-16T12:57:04.882Z,375
2017-12-16T12:58:05.599Z,250
2017-12-16T12:59:06.316Z,290
2017-12-16T13:00:07.033Z,405
2017-12-16T13:01:07.752Z,350
2017-12-16T13:02:08.464Z,305
2017-12-16T13:03:09.183Z,430
2017-12-16T13:04:09.900Z,400
2017-12-16T13:05:10.615Z,360
2017-12-16T13:06:11.332Z,315
2017-12-16T13:07:12.049Z,300
2017-12-16T13:08:12.772Z,225
2017-12-16T13:09:13.482Z,225
2017-12-16T13:10:14.199Z,225
2017-12-16T13:11:14.915Z,490
2017-12-16T13:12:15.629Z,355
2017-12-16T13:13:16.346Z,260
2017-12-16T13:14:17.060Z,165
2017-12-16T13:15:17.775Z,135
2017-12-16T13:16:18.490Z,135
2017-12-16T13:17:19.224Z,145
2017-12-16T13:18:19.938Z,160
2017-12-16T13:19:20.653Z,140
2017-12-16T13:20:21.408Z,150
2017-12-16T13:21:22.103Z,155
2017-12-16T13:22:22.818Z,165
2017-12-16T13:23:23.536Z,170
2017-12-16T13:24:24.251Z,160
2017-12-16T13:25:24.965Z,130
2017-12-16T13:26:25.682Z,110
2017-12-16T13:27:26.397Z,105
2017-12-16T13:28:27.111Z,110
2017-12-16T13:29:27.828Z,110
2017-12-16T13:30:28.558Z,115
2017-12-16T13:31:29.286Z,150
2017-12-16T13:32:30.003Z,235
2017-12-16T13:33:30.717Z,160
2017-12-16T13:34:31.433Z,145
2017-12-16T13:35:32.148Z,135
2017-12-16T13:36:32.862Z,110
2017-12-16T13:37:33.573Z,95
2017-12-16T13:38:34.286Z,95
2017-12-16T13:39:34.999Z,85
2017-12-16T13:40:35.711Z,80
2017-12-16T13:41:36.425Z,65
2017-12-16T13:42:37.135Z,60
2017-12-16T13:43:37.859Z,55
2017-12-16T13:44:38.570Z,50
2017-12-16T13:45:39.282Z,50
2017-12-16T13:46:39.996Z,55
2017-12-16T13:47:40.708Z,60
2017-12-16T13:48:41.424Z,65
2017-12-16T13:49:42.133Z,75
2017-12-16T13:50:42.846Z,75
2017-12-16T13:51:43.558Z,85
2017-12-16T13:52:44.269Z,90
2017-12-16T13:53:44.980Z,95
2017-12-16T13:54:45.694Z,95
2017-12-16T13:55:46.407Z,90
2017-12-16T13:56:47.135Z,90
2017-12-16T13:57:47.847Z,85
2017-12-16T13:58:48.557Z,75
2017-12-16T13:59:49.268Z,65
2017-12-16T14:00:49.981Z,65
2017-12-16T14:01:50.694Z,75
2017-12-16T14:02:51.406Z,85
2017-12-16T14:03:52.133Z,85
2017-12-16T14:04:52.843Z,80
2017-12-16T14:05:53.557Z,75
2017-12-16T14:06:54.270Z,70
2017-12-16T14:07:54.983Z,65
2017-12-16T14:08:55.692Z,60
2017-12-16T14:09:56.408Z,55
2017-12-16T14:10:57.118Z,55
2017-12-16T14:11:57.831Z,60
2017-12-16T14:12:58.542Z,65
2017-12-16T14:13:59.269Z,65
2017-12-16T14:14:59.978Z,60
2017-12-16T14:16:00.690Z,60
2017-12-16T14:17:01.402Z,60
2017-12-16T14:18:02.114Z,55
2017-12-16T14:19:02.824Z,55
2017-12-16T14:20:03.535Z,55
2017-12-16T14:21:04.248Z,55
2017-12-16T14:22:04.959Z,50
2017-12-16T14:23:05.687Z,50
2017-12-16T14:24:06.410Z,50
2017-12-16T14:25:07.122Z,50
2017-12-16T14:26:07.851Z,50
2017-12-16T14:27:08.562Z,50
2017-12-16T14:28:09.272Z,50
2017-12-16T14:29:09.984Z,45
2017-12-16T14:30:10.697Z,45
2017-12-16T14:31:11.421Z,45
2017-12-16T14:32:12.132Z,45